createdAt,value
2018-03-30T00:00:41.896Z,4.70
2018-03-30T00:03:10.294Z,5.00
2018-03-30T00:05:39.467Z,3.50
2018-03-30T00:08:07.904Z,4.05
2018-03-30T00:10:41.810Z,4.80
2018-03-30T00:13:11.231Z,4.20
2018-03-30T00:15:39.612Z,4.30
2018-03-30T00:18:08.005Z,4.35
2018-03-30T00:20:36.428Z,4.72
2018-03-30T00:23:04.823Z,4.20
2018-03-30T00:25:33.971Z,4.30
2018-03-30T00:28:02.353Z,5.35
2018-03-30T00:30:30.740Z,3.95
2018-03-30T00:32:59.152Z,5.37
2018-03-30T00:35:27.545Z,4.65
2018-03-30T00:37:55.920Z,5.55
2018-03-30T00:40:25.164Z,4.82
2018-03-30T00:42:53.586Z,4.82
2018-03-30T00:45:22.009Z,5.00
2018-03-30T00:47:50.508Z,4.80
2018-03-30T00:50:18.900Z,5.22
2018-03-30T00:52:47.283Z,4.60
2018-03-30T00:55:15.682Z,4.65
2018-03-30T00:57:44.063Z,4.15
2018-03-30T01:00:12.465Z,4.78
2018-03-30T01:02:40.963Z,4.87
2018-03-30T01:05:09.380Z,4.18
2018-03-30T01:07:37.753Z,4.90
2018-03-30T01:10:06.162Z,3.97
2018-03-30T01:12:34.634Z,4.55
2018-03-30T01:15:03.237Z,4.40
2018-03-30T01:17:31.656Z,5.55
2018-03-30T01:20:00.036Z,4.57
2018-03-30T01:22:28.417Z,4.40
2018-03-30T01:24:56.800Z,4.65
2018-03-30T01:27:25.939Z,4.37
2018-03-30T01:29:54.318Z,4.50
2018-03-30T01:32:22.702Z,4.57
2018-03-30T01:34:51.155Z,4.18
2018-03-30T01:37:20.352Z,4.28
2018-03-30T01:39:52.720Z,4.40
2018-03-30T01:42:21.891Z,4.20
2018-03-30T01:44:50.278Z,5.05
2018-03-30T01:47:18.678Z,4.40
2018-03-30T01:49:47.866Z,5.35
2018-03-30T01:52:16.288Z,4.55
2018-03-30T01:54:44.663Z,5.15
2018-03-30T01:57:13.064Z,4.43
2018-03-30T01:59:41.606Z,5.15
2018-03-30T02:02:10.755Z,4.55
2018-03-30T02:04:39.193Z,4.87
2018-03-30T02:07:07.582Z,5.00
2018-03-30T02:09:36.720Z,5.43
2018-03-30T02:12:05.273Z,4.57
2018-03-30T02:14:33.643Z,4.97
2018-03-30T02:17:02.948Z,4.28
2018-03-30T02:19:32.086Z,4.50
2018-03-30T02:22:01.386Z,4.75
2018-03-30T02:24:29.751Z,4.87
2018-03-30T02:26:58.127Z,4.65
2018-03-30T02:29:26.527Z,4.97
2018-03-30T02:31:54.893Z,4.30
2018-03-30T02:34:23.317Z,3.95
2018-03-30T02:36:51.711Z,5.20
2018-03-30T02:39:20.126Z,4.70
2018-03-30T02:41:48.542Z,4.25
2018-03-30T02:44:16.943Z,4.82
2018-03-30T02:46:45.348Z,4.25
2018-03-30T02:49:13.719Z,4.40
2018-03-30T02:51:42.175Z,4.85
2018-03-30T02:54:11.344Z,4.82
2018-03-30T02:56:39.937Z,4.47
2018-03-30T02:59:08.470Z,4.65
2018-03-30T03:01:37.037Z,4.75
2018-03-30T03:04:05.415Z,5.03
2018-03-30T03:06:33.804Z,4.85
2018-03-30T03:09:02.379Z,4.55
2018-03-30T03:11:30.762Z,5.40
2018-03-30T03:14:00.551Z,4.72
2018-03-30T03:16:28.947Z,5.40
2018-03-30T03:18:57.391Z,4.28
2018-03-30T03:21:26.526Z,3.80
2018-03-30T03:23:54.947Z,4.87
2018-03-30T03:26:23.330Z,4.32
2018-03-30T03:28:52.680Z,5.62
2018-03-30T03:31:21.144Z,4.07
2018-03-30T03:33:49.530Z,4.68
2018-03-30T03:36:17.925Z,4.80
2018-03-30T03:38:46.324Z,4.50
2018-03-30T03:41:14.878Z,4.50
2018-03-30T03:43:43.280Z,4.93
2018-03-30T03:46:11.671Z,4.95
2018-03-30T03:48:40.101Z,4.95
2018-03-30T03:51:09.240Z,5.47
2018-03-30T03:53:37.634Z,5.37
2018-03-30T03:56:06.043Z,4.40
2018-03-30T03:58:34.461Z,5.03
2018-03-30T04:01:02.973Z,5.12
2018-03-30T04:03:31.351Z,4.95
2018-03-30T04:05:59.755Z,4.43
2018-03-30T04:08:28.110Z,5.28
2018-03-30T04:10:56.486Z,4.57
2018-03-30T04:13:24.932Z,4.30
2018-03-30T04:15:54.134Z,4.40
2018-03-30T04:18:23.270Z,4.68
2018-03-30T04:20:51.631Z,4.50
2018-03-30T04:23:20.005Z,4.32
2018-03-30T04:25:48.371Z,4.50
2018-03-30T04:28:17.523Z,5.25
2018-03-30T04:30:45.900Z,5.15
2018-03-30T04:33:14.360Z,5.53
2018-03-30T04:35:42.725Z,4.53
2018-03-30T04:38:11.190Z,4.90
2018-03-30T04:40:40.342Z,4.80
2018-03-30T04:43:08.726Z,4.72
2018-03-30T04:45:37.138Z,4.20
2018-03-30T04:48:05.559Z,4.37
2018-03-30T04:50:33.965Z,4.90
2018-03-30T04:53:02.350Z,4.10
2018-03-30T04:55:30.926Z,4.47
2018-03-30T04:57:59.350Z,5.50
2018-03-30T05:00:27.723Z,4.15
2018-03-30T05:02:56.103Z,4.85
2018-03-30T05:05:25.268Z,4.80
2018-03-30T05:07:53.680Z,5.40
2018-03-30T05:10:22.016Z,5.12
2018-03-30T05:12:50.447Z,4.45
2018-03-30T05:15:18.835Z,5.30
2018-03-30T05:17:47.498Z,5.03
2018-03-30T05:20:15.892Z,4.70
2018-03-30T05:22:44.293Z,5.30
2018-03-30T05:25:13.463Z,5.00
2018-03-30T05:27:41.861Z,5.35
2018-03-30T05:30:10.426Z,5.35
2018-03-30T05:32:38.903Z,10.95
2018-03-30T05:35:07.299Z,7.85
2018-03-30T05:37:35.704Z,8.80
2018-03-30T05:40:04.097Z,6.25
2018-03-30T05:42:33.251Z,4.95
2018-03-30T05:45:01.635Z,5.53
2018-03-30T05:47:30.092Z,5.40
2018-03-30T05:49:58.484Z,5.37
2018-03-30T05:52:26.864Z,4.90
2018-03-30T05:54:55.306Z,5.10
2018-03-30T05:57:24.488Z,5.35
2018-03-30T05:59:52.889Z,4.93
2018-03-30T06:02:22.107Z,5.80
2018-03-30T06:04:50.516Z,5.35
2018-03-30T06:07:18.892Z,5.45
2018-03-30T06:09:47.286Z,5.20
2018-03-30T06:12:15.685Z,5.07
2018-03-30T06:14:44.128Z,5.65
2018-03-30T06:17:12.526Z,5.05
2018-03-30T06:19:40.904Z,4.57
2018-03-30T06:22:09.288Z,5.05
2018-03-30T06:24:37.710Z,4.65
2018-03-30T06:27:07.044Z,4.60
2018-03-30T06:29:36.215Z,5.50
2018-03-30T06:32:04.611Z,4.87
2018-03-30T06:34:32.987Z,5.85
2018-03-30T06:37:01.363Z,5.43
2018-03-30T06:39:31.376Z,5.43
2018-03-30T06:42:02.406Z,5.05
2018-03-30T06:44:31.562Z,4.87
2018-03-30T06:46:59.956Z,5.62
2018-03-30T06:49:28.583Z,5.35
2018-03-30T06:51:56.968Z,5.40
2018-03-30T06:54:25.344Z,5.25
2018-03-30T06:57:08.730Z,5.45
2018-03-30T06:59:37.130Z,6.03
2018-03-30T07:02:05.549Z,6.15
2018-03-30T07:04:34.798Z,6.15
2018-03-30T07:07:03.488Z,4.63
2018-03-30T07:09:31.893Z,5.37
2018-03-30T07:12:00.444Z,5.20
2018-03-30T07:14:28.817Z,5.50
2018-03-30T07:16:57.234Z,6.05
2018-03-30T07:19:25.854Z,5.00
2018-03-30T07:21:55.563Z,5.50
2018-03-30T07:24:23.974Z,6.03
2018-03-30T07:26:52.394Z,5.30
2018-03-30T07:29:20.811Z,6.27
2018-03-30T07:31:49.960Z,5.70
2018-03-30T07:34:18.384Z,5.80
2018-03-30T07:36:47.548Z,5.60
2018-03-30T07:39:15.977Z,5.97
2018-03-30T07:41:45.148Z,5.30
2018-03-30T07:44:14.320Z,5.53
2018-03-30T07:49:43.337Z,5.00
2018-03-30T07:52:11.718Z,5.77
2018-03-30T07:54:40.170Z,5.83
2018-03-30T07:57:08.596Z,5.80
2018-03-30T07:59:44.216Z,4.70
2018-03-30T08:02:13.661Z,4.60
2018-03-30T08:04:42.061Z,5.27
2018-03-30T08:07:10.458Z,5.40
2018-03-30T08:09:39.620Z,4.27
2018-03-30T08:12:08.303Z,4.83
2018-03-30T08:14:36.721Z,5.43
2018-03-30T08:17:05.141Z,5.20
2018-03-30T08:19:33.535Z,4.77
2018-03-30T08:22:01.923Z,5.70
2018-03-30T08:24:30.308Z,5.13
2018-03-30T08:26:58.747Z,4.73
2018-03-30T08:29:27.168Z,5.27
2018-03-30T08:31:55.574Z,4.60
2018-03-30T08:34:23.957Z,4.60
2018-03-30T08:36:52.354Z,4.47
2018-03-30T08:39:21.507Z,4.60
2018-03-30T08:41:49.964Z,4.57
2018-03-30T08:44:18.334Z,5.30
2018-03-30T08:46:46.751Z,5.00
2018-03-30T08:49:15.223Z,4.50
2018-03-30T08:51:43.607Z,5.03
2018-03-30T08:54:11.992Z,5.77
2018-03-30T08:56:41.678Z,5.27
2018-03-30T08:59:10.277Z,4.57
2018-03-30T09:01:38.719Z,5.83
2018-03-30T09:04:07.156Z,5.10
2018-03-30T09:06:35.568Z,5.90
2018-03-30T09:09:03.956Z,4.73
2018-03-30T09:11:32.342Z,5.30
2018-03-30T09:14:01.522Z,4.50
2018-03-30T09:16:29.925Z,5.73
2018-03-30T09:18:58.379Z,5.87
2018-03-30T09:21:26.832Z,4.90
2018-03-30T09:23:55.215Z,4.90
2018-03-30T09:26:23.646Z,3.97
2018-03-30T09:28:52.831Z,3.93
2018-03-30T09:31:22.023Z,4.10
2018-03-30T09:33:50.523Z,4.97
2018-03-30T09:36:19.699Z,4.47
2018-03-30T09:38:48.161Z,4.20
2018-03-30T09:41:16.600Z,4.20
2018-03-30T09:43:50.291Z,4.03
2018-03-30T09:49:20.559Z,4.13
2018-03-30T09:51:48.950Z,4.03
2018-03-30T09:54:17.371Z,4.00
2018-03-30T09:56:45.775Z,3.83
2018-03-30T09:59:14.211Z,3.33
2018-03-30T10:01:42.830Z,4.37
2018-03-30T10:04:11.292Z,4.27
2018-03-30T10:06:39.712Z,4.00
2018-03-30T10:09:08.904Z,4.40
2018-03-30T10:11:37.289Z,3.60
2018-03-30T10:14:06.475Z,4.20
2018-03-30T10:16:34.855Z,4.13
2018-03-30T10:19:03.407Z,3.97
2018-03-30T10:21:31.816Z,3.87
2018-03-30T10:24:00.368Z,3.57
2018-03-30T10:26:28.761Z,3.77
2018-03-30T10:28:57.176Z,3.10
2018-03-30T10:31:25.601Z,3.93
2018-03-30T10:33:53.975Z,3.70
2018-03-30T10:36:22.392Z,3.73
2018-03-30T10:38:50.867Z,3.77
2018-03-30T10:41:19.459Z,3.57
2018-03-30T10:43:48.025Z,3.43
2018-03-30T10:46:16.409Z,2.70
2018-03-30T10:48:44.835Z,3.20
2018-03-30T10:51:16.864Z,3.77
2018-03-30T10:53:45.288Z,3.70
2018-03-30T10:56:16.773Z,2.70
2018-03-30T10:58:48.379Z,2.93
2018-03-30T11:01:16.808Z,2.90
2018-03-30T11:03:50.878Z,2.80
2018-03-30T11:06:19.525Z,2.80
2018-03-30T11:08:47.915Z,4.00
2018-03-30T11:11:16.563Z,3.57
2018-03-30T11:13:45.730Z,3.20
2018-03-30T11:16:14.143Z,3.03
2018-03-30T11:18:42.568Z,3.40
2018-03-30T11:21:10.996Z,3.53
2018-03-30T11:23:39.440Z,2.73
2018-03-30T11:26:07.893Z,2.53
2018-03-30T11:28:36.303Z,2.60
2018-03-30T11:31:04.755Z,2.57
2018-03-30T11:33:33.135Z,2.30
2018-03-30T11:36:01.590Z,2.40
2018-03-30T11:38:30.762Z,1.80
2018-03-30T11:41:00.041Z,2.40
2018-03-30T11:43:28.492Z,1.77
2018-03-30T11:45:56.903Z,1.83
2018-03-30T11:48:25.333Z,2.00
2018-03-30T11:50:54.363Z,2.17
2018-03-30T11:53:23.052Z,1.73
2018-03-30T11:55:51.908Z,2.00
2018-03-30T11:58:20.560Z,1.80
2018-03-30T12:00:49.093Z,1.60
2018-03-30T12:03:18.256Z,1.47
2018-03-30T12:05:46.653Z,2.03
2018-03-30T12:08:15.322Z,1.93
2018-03-30T12:10:43.736Z,1.97
2018-03-30T12:13:12.216Z,1.80
2018-03-30T12:15:40.628Z,1.80
2018-03-30T12:18:09.044Z,1.50
2018-03-30T12:20:37.516Z,1.73
2018-03-30T12:23:06.104Z,2.10
2018-03-30T12:25:34.620Z,2.50
2018-03-30T12:28:03.006Z,1.77
2018-03-30T12:30:31.424Z,1.90
2018-03-30T12:32:59.828Z,1.80
2018-03-30T12:35:28.233Z,1.80
2018-03-30T12:37:57.517Z,1.47
2018-03-30T12:40:25.929Z,1.93
2018-03-30T12:42:54.373Z,1.53
2018-03-30T12:45:23.032Z,1.70
2018-03-30T12:47:52.246Z,2.30
2018-03-30T12:50:20.634Z,1.90
2018-03-30T12:52:49.037Z,1.60
2018-03-30T12:55:17.454Z,2.00
2018-03-30T12:57:45.896Z,2.20
2018-03-30T13:00:14.311Z,2.20
2018-03-30T13:02:42.709Z,2.33
2018-03-30T13:05:11.890Z,2.40
2018-03-30T13:07:40.301Z,2.23
2018-03-30T13:10:09.515Z,2.20
2018-03-30T13:12:38.661Z,2.40
2018-03-30T13:15:07.059Z,2.70
2018-03-30T13:17:35.503Z,2.40
2018-03-30T13:20:03.907Z,2.90
2018-03-30T13:22:32.302Z,2.83
2018-03-30T13:25:00.699Z,2.67
2018-03-30T13:27:29.908Z,2.83
2018-03-30T13:29:58.300Z,2.27
2018-03-30T13:32:26.782Z,2.67
2018-03-30T13:34:55.179Z,2.90
2018-03-30T13:37:24.273Z,2.30
2018-03-30T13:39:52.692Z,2.70
2018-03-30T13:42:21.057Z,2.40
2018-03-30T13:44:49.521Z,2.50
2018-03-30T13:47:17.921Z,3.00
2018-03-30T13:49:46.331Z,3.13
2018-03-30T13:52:34.102Z,2.23
2018-03-30T13:55:02.504Z,2.40
2018-03-30T14:00:48.990Z,3.40
2018-03-30T14:03:21.996Z,2.70
2018-03-30T14:06:13.840Z,3.27
2018-03-30T14:12:00.986Z,2.67
2018-03-30T14:14:29.384Z,2.60
2018-03-30T14:16:58.518Z,2.60
2018-03-30T14:19:28.687Z,2.70
2018-03-30T14:22:06.711Z,2.70
2018-03-30T14:24:37.948Z,2.40
2018-03-30T14:27:09.833Z,3.00
2018-03-30T14:29:38.931Z,2.70
2018-03-30T14:32:35.534Z,1.90
2018-03-30T14:35:12.518Z,2.60
2018-03-30T14:37:42.538Z,2.30
2018-03-30T14:40:30.068Z,2.80
2018-03-30T14:43:00.968Z,2.20
2018-03-30T14:45:46.914Z,2.17
2018-03-30T14:48:25.733Z,2.10
2018-03-30T14:51:10.680Z,2.40
2018-03-30T14:53:46.815Z,2.23
2018-03-30T14:56:32.698Z,2.10
2018-03-30T14:59:06.392Z,2.70
2018-03-30T15:01:46.891Z,2.40
2018-03-30T15:04:22.484Z,2.63
2018-03-30T15:06:59.510Z,3.07
2018-03-30T15:09:33.734Z,3.50
2018-03-30T15:12:11.917Z,2.70
2018-03-30T15:14:47.084Z,2.53
2018-03-30T15:17:25.501Z,2.63
2018-03-30T15:22:53.946Z,2.03
2018-03-30T15:25:23.004Z,3.90
2018-03-30T15:27:55.757Z,3.20
2018-03-30T15:30:31.743Z,2.60
2018-03-30T15:33:10.444Z,2.97
2018-03-30T15:35:54.461Z,3.00
2018-03-30T15:38:24.043Z,3.63
2018-03-30T15:40:52.955Z,2.97
2018-03-30T15:43:32.393Z,2.40
2018-03-30T15:46:26.511Z,3.30
2018-03-30T15:48:54.972Z,3.73
2018-03-30T15:51:31.770Z,3.70
2018-03-30T15:53:59.508Z,2.73
2018-03-30T15:56:30.588Z,2.40
2018-03-30T15:58:59.016Z,2.87
2018-03-30T16:01:28.760Z,4.20
2018-03-30T16:03:57.951Z,3.40
2018-03-30T16:06:26.456Z,3.17
2018-03-30T16:08:55.636Z,3.33
2018-03-30T16:11:36.624Z,3.40
2018-03-30T16:14:05.852Z,2.70
2018-03-30T16:16:34.263Z,3.37
2018-03-30T16:19:01.956Z,3.43
2018-03-30T16:21:29.795Z,3.67
2018-03-30T16:23:57.359Z,4.13
2018-03-30T16:26:24.960Z,3.17
2018-03-30T16:29:02.420Z,3.50
2018-03-30T16:31:30.019Z,3.23
2018-03-30T16:33:57.540Z,3.93
2018-03-30T16:36:25.089Z,3.63
2018-03-30T16:38:52.633Z,3.03
2018-03-30T16:41:20.178Z,2.90
2018-03-30T16:43:47.730Z,3.40
2018-03-30T16:46:15.450Z,5.63
2018-03-30T16:48:43.034Z,2.90
2018-03-30T16:51:10.637Z,3.70
2018-03-30T16:53:38.273Z,3.20
2018-03-30T16:56:06.587Z,2.80
2018-03-30T16:58:34.152Z,3.63
2018-03-30T17:01:01.714Z,2.83
2018-03-30T17:03:29.311Z,3.27
2018-03-30T17:05:56.921Z,3.77
2018-03-30T17:08:24.512Z,3.30
2018-03-30T17:10:52.088Z,2.83
2018-03-30T17:13:19.755Z,3.20
2018-03-30T17:15:47.329Z,3.20
2018-03-30T17:18:16.051Z,2.97
2018-03-30T17:20:44.842Z,3.30
2018-03-30T17:23:22.493Z,3.70
2018-03-30T17:25:50.036Z,3.60
2018-03-30T17:28:18.104Z,3.27
2018-03-30T17:30:47.541Z,3.10
2018-03-30T17:33:16.463Z,3.50
2018-03-30T17:35:44.813Z,3.33
2018-03-30T17:38:12.574Z,3.63
2018-03-30T17:40:41.069Z,3.90
2018-03-30T17:43:08.614Z,3.70
2018-03-30T17:45:36.244Z,4.23
2018-03-30T17:48:14.221Z,4.03
2018-03-30T17:50:41.832Z,3.87
2018-03-30T17:53:09.380Z,4.50
2018-03-30T17:55:37.318Z,3.97
2018-03-30T17:58:04.954Z,3.40
2018-03-30T18:00:32.539Z,4.13
2018-03-30T18:03:00.859Z,5.00
2018-03-30T18:05:28.494Z,4.13
2018-03-30T18:07:56.058Z,4.70
2018-03-30T18:10:23.621Z,5.00
2018-03-30T18:12:51.187Z,5.07
2018-03-30T18:15:18.733Z,4.30
2018-03-30T18:17:46.405Z,5.20
2018-03-30T18:20:14.094Z,4.60
2018-03-30T18:22:42.399Z,4.80
2018-03-30T18:25:10.109Z,4.75
2018-03-30T18:27:38.440Z,5.07
2018-03-30T18:30:06.120Z,5.77
2018-03-30T18:32:33.989Z,5.03
2018-03-30T18:35:01.595Z,4.97
2018-03-30T18:37:29.520Z,4.28
2018-03-30T18:39:57.193Z,4.72
2018-03-30T18:42:24.860Z,4.65
2018-03-30T18:44:52.512Z,5.10
2018-03-30T18:47:20.108Z,5.53
2018-03-30T18:49:47.706Z,3.53
2018-03-30T18:52:16.225Z,3.83
2018-03-30T18:54:43.908Z,4.60
2018-03-30T18:57:11.765Z,4.00
2018-03-30T18:59:39.507Z,3.60
2018-03-30T19:02:07.640Z,4.15
2018-03-30T19:04:35.235Z,3.30
2018-03-30T19:07:02.902Z,3.15
2018-03-30T19:09:30.559Z,2.00
2018-03-30T19:11:58.969Z,2.75
2018-03-30T19:14:26.531Z,2.08
2018-03-30T19:16:54.484Z,1.80
2018-03-30T19:19:22.126Z,2.20
2018-03-30T19:21:50.590Z,2.42
2018-03-30T19:24:18.347Z,1.92
2018-03-30T19:26:46.031Z,1.45
2018-03-30T19:29:14.633Z,1.40
2018-03-30T19:31:43.501Z,1.75
2018-03-30T19:34:11.147Z,1.40
2018-03-30T19:36:38.710Z,2.03
2018-03-30T19:39:06.247Z,1.55
2018-03-30T19:41:33.839Z,1.70
2018-03-30T19:44:01.372Z,2.70
2018-03-30T19:46:28.904Z,1.70
2018-03-30T19:48:56.470Z,1.70
2018-03-30T19:51:24.188Z,1.23
2018-03-30T19:53:51.870Z,1.70
2018-03-30T19:56:20.188Z,1.77
2018-03-30T19:58:47.785Z,1.80
2018-03-30T20:01:15.335Z,1.50
2018-03-30T20:03:43.141Z,2.35
2018-03-30T20:06:10.714Z,2.30
2018-03-30T20:08:39.118Z,2.35
2018-03-30T20:11:06.648Z,2.95
2018-03-30T20:13:34.978Z,2.85
2018-03-30T20:16:02.772Z,2.50
2018-03-30T20:18:30.351Z,2.75
2018-03-30T20:20:58.127Z,3.22
2018-03-30T20:23:25.813Z,2.67
2018-03-30T20:25:53.375Z,3.70
2018-03-30T20:28:20.975Z,2.50
2018-03-30T20:30:49.293Z,3.17
2018-03-30T20:33:16.827Z,2.78
2018-03-30T20:35:44.491Z,2.90
2018-03-30T20:38:12.566Z,2.85
2018-03-30T20:40:40.236Z,2.90
2018-03-30T20:43:07.903Z,2.62
2018-03-30T20:45:35.751Z,2.45
2018-03-30T20:48:03.353Z,3.33
2018-03-30T20:50:30.899Z,2.40
2018-03-30T20:52:58.458Z,2.70
2018-03-30T20:55:26.276Z,3.15
2018-03-30T20:57:54.624Z,3.15
2018-03-30T21:02:55.977Z,2.75
2018-03-30T21:05:23.579Z,2.95
2018-03-30T21:07:51.175Z,2.53
2018-03-30T21:10:19.487Z,3.20
2018-03-30T21:12:47.049Z,2.90
2018-03-30T21:15:14.594Z,2.80
2018-03-30T21:17:42.983Z,2.67
2018-03-30T21:20:10.512Z,2.80
2018-03-30T21:22:38.970Z,3.15
2018-03-30T21:25:06.582Z,2.55
2018-03-30T21:27:34.115Z,3.05
2018-03-30T21:30:02.425Z,2.78
2018-03-30T21:32:30.100Z,2.85
2018-03-30T21:34:57.896Z,3.30
2018-03-30T21:37:25.460Z,3.05
2018-03-30T21:39:53.020Z,2.85
2018-03-30T21:42:20.679Z,2.70
2018-03-30T21:44:48.232Z,2.95
2018-03-30T21:47:15.757Z,4.20
2018-03-30T21:49:43.301Z,2.85
2018-03-30T21:52:11.605Z,3.00
2018-03-30T21:54:39.135Z,3.08
2018-03-30T21:57:07.439Z,2.97
2018-03-30T21:59:35.002Z,2.78
2018-03-30T22:02:02.568Z,3.20
2018-03-30T22:04:30.161Z,3.17
2018-03-30T22:06:57.841Z,2.85
2018-03-30T22:09:25.387Z,2.85
2018-03-30T22:11:52.952Z,3.22
2018-03-30T22:14:20.564Z,3.00
2018-03-30T22:16:48.270Z,2.90
2018-03-30T22:19:15.816Z,3.12
2018-03-30T22:21:43.463Z,2.87
2018-03-30T22:24:11.013Z,3.05
2018-03-30T22:26:39.377Z,3.05
2018-03-30T22:29:06.921Z,2.85
2018-03-30T22:31:34.529Z,2.83
2018-03-30T22:34:02.397Z,2.70
2018-03-30T22:36:30.144Z,2.80
2018-03-30T22:38:58.531Z,2.83
2018-03-30T22:41:26.069Z,2.47
2018-03-30T22:43:53.702Z,2.80
2018-03-30T22:46:21.253Z,2.33
2018-03-30T22:48:48.775Z,2.90
2018-03-30T22:51:17.077Z,3.10
2018-03-30T22:53:44.637Z,3.00
2018-03-30T22:56:12.192Z,3.03
2018-03-30T22:58:39.775Z,2.90
2018-03-30T23:01:07.260Z,3.00
2018-03-30T23:03:34.895Z,3.25
2018-03-30T23:06:02.423Z,3.78
2018-03-30T23:08:30.736Z,2.60
2018-03-30T23:10:58.274Z,2.83
2018-03-30T23:13:25.804Z,3.83
2018-03-30T23:15:53.334Z,3.33
2018-03-30T23:18:20.881Z,3.65
2018-03-30T23:20:48.432Z,2.87
2018-03-30T23:23:15.987Z,3.30
2018-03-30T23:25:44.367Z,2.85
2018-03-30T23:28:11.938Z,3.55
2018-03-30T23:30:39.511Z,3.45
2018-03-30T23:33:07.068Z,2.92
2018-03-30T23:35:34.630Z,3.22
2018-03-30T23:38:02.204Z,2.80
2018-03-30T23:40:29.375Z,3.47
2018-03-30T23:42:56.995Z,3.85
2018-03-30T23:45:24.555Z,3.30
2018-03-30T23:47:52.867Z,3.78
2018-03-30T23:50:20.387Z,3.87
2018-03-30T23:52:47.932Z,3.62
2018-03-30T23:55:16.230Z,3.60
2018-03-30T23:57:44.640Z,3.50
